Time;durP1;ratioP1;P1;durP2;ratioP2;P2;SDS_P1;SDS_P2;PMS_P1;PMS_P2;Temp;Humidity;BMP_temperature;BMP_pressure;BME280_temperature;BME280_humidity;BME280_pressure;Samples;Min_cycle;Max_cycle;Signal;HPM_P1;HPM_P2
2022/01/31 00:01:49;;;;;;;14.23;5.23;;;6.50;99.90;;;;;;5052775;28;20604;-71
2022/01/31 00:04:15;;;;;;;12.93;4.60;;;6.50;99.90;;;;;;5052840;28;20174;-71
2022/01/31 00:06:42;;;;;;;18.03;5.00;;;6.50;99.90;;;;;;5052637;28;20177;-71
2022/01/31 00:09:14;;;;;;;16.50;5.03;;;6.50;99.90;;;;;;5052404;28;20215;-72
2022/01/31 00:11:43;;;;;;;15.80;5.23;;;6.60;99.90;;;;;;5052265;28;20278;-71
2022/01/31 00:14:16;;;;;;;18.63;4.90;;;6.60;99.90;;;;;;5052540;28;20162;-72
2022/01/31 00:16:42;;;;;;;14.70;4.70;;;6.60;99.90;;;;;;5052790;28;20165;-72
2022/01/31 00:19:07;;;;;;;20.43;5.20;;;6.50;99.90;;;;;;5053186;28;20181;-71
2022/01/31 00:21:33;;;;;;;18.90;4.77;;;6.60;99.90;;;;;;5038624;28;20169;-71
2022/01/31 00:23:59;;;;;;;16.90;4.67;;;6.50;99.90;;;;;;5056171;28;20223;-71
2022/01/31 00:26:25;;;;;;;17.87;5.43;;;6.50;99.90;;;;;;5055706;28;20221;-71
2022/01/31 00:28:50;;;;;;;15.13;4.97;;;6.50;99.90;;;;;;5056464;28;20165;-71
2022/01/31 00:31:16;;;;;;;19.60;5.23;;;6.60;99.90;;;;;;5056155;28;20208;-72
2022/01/31 00:33:42;;;;;;;19.00;4.87;;;6.60;99.90;;;;;;5056219;28;20169;-72
2022/01/31 00:36:07;;;;;;;20.13;4.70;;;6.60;99.90;;;;;;5056118;28;20207;-72
2022/01/31 00:38:34;;;;;;;20.00;5.47;;;6.50;99.90;;;;;;5055819;28;20180;-72
2022/01/31 00:41:00;;;;;;;19.37;4.53;;;6.50;99.90;;;;;;5055544;28;20262;-71
2022/01/31 00:43:25;;;;;;;14.13;4.80;;;6.50;99.90;;;;;;5056157;28;20165;-72
2022/01/31 00:46:00;;;;;;;19.00;5.10;;;6.50;99.90;;;;;;5056020;28;20511;-72
2022/01/31 00:48:28;;;;;;;17.90;4.77;;;6.60;99.90;;;;;;5037952;28;20169;-71
2022/01/31 00:50:54;;;;;;;12.20;3.80;;;6.60;99.90;;;;;;5055862;28;20597;-72
2022/01/31 00:53:19;;;;;;;14.60;3.77;;;6.60;99.90;;;;;;5055737;28;20157;-72
2022/01/31 00:55:45;;;;;;;14.23;4.50;;;6.50;99.90;;;;;;5055098;28;20176;-72
2022/01/31 00:58:11;;;;;;;16.70;4.37;;;6.60;99.90;;;;;;5055871;28;20173;-71
2022/01/31 01:00:36;;;;;;;13.07;4.40;;;6.60;99.90;;;;;;5055669;28;20169;-72
2022/01/31 01:03:03;;;;;;;18.53;4.13;;;6.70;99.90;;;;;;5055812;28;20172;-72
2022/01/31 01:05:29;;;;;;;18.03;4.40;;;6.70;99.90;;;;;;5055717;28;20196;-72
2022/01/31 01:07:54;;;;;;;13.63;4.63;;;6.80;99.90;;;;;;5055265;28;20693;-72
2022/01/31 01:10:20;;;;;;;17.70;4.77;;;6.80;99.90;;;;;;5054958;28;20254;-72
2022/01/31 01:12:47;;;;;;;13.00;4.10;;;6.80;99.90;;;;;;5055366;28;20556;-71
2022/01/31 01:15:14;;;;;;;14.63;4.03;;;6.80;99.90;;;;;;5055417;28;20271;-72
2022/01/31 01:17:40;;;;;;;14.40;3.97;;;6.80;99.90;;;;;;5055350;28;20193;-72
2022/01/31 01:20:06;;;;;;;12.70;4.73;;;6.80;99.90;;;;;;5055159;28;20205;-72
2022/01/31 01:22:32;;;;;;;13.30;5.03;;;6.80;99.90;;;;;;5055139;28;20176;-72
2022/01/31 01:25:00;;;;;;;18.00;4.80;;;6.80;99.90;;;;;;5054735;28;20632;-72
2022/01/31 01:27:26;;;;;;;12.23;4.20;;;6.70;99.90;;;;;;5055309;28;20169;-73
2022/01/31 01:29:51;;;;;;;11.90;3.73;;;6.70;99.90;;;;;;5054879;28;20180;-73
2022/01/31 01:32:17;;;;;;;19.93;5.23;;;6.60;99.90;;;;;;5055057;28;20189;-72
2022/01/31 01:34:44;;;;;;;20.87;4.67;;;6.60;99.90;;;;;;5055119;28;20173;-71
2022/01/31 01:37:09;;;;;;;17.80;4.63;;;6.50;99.90;;;;;;5054845;28;20196;-72
2022/01/31 01:39:35;;;;;;;16.53;4.53;;;6.50;99.90;;;;;;5054391;28;20227;-72
2022/01/31 01:42:01;;;;;;;20.83;4.13;;;6.50;99.90;;;;;;5054914;28;20192;-74
2022/01/31 01:44:45;;;;;;;16.00;4.30;;;6.50;99.90;;;;;;5054939;28;20228;-74
2022/01/31 01:47:11;;;;;;;21.83;4.70;;;6.40;99.90;;;;;;5054626;28;20180;-73
2022/01/31 01:49:37;;;;;;;15.33;4.67;;;6.30;99.90;;;;;;5054800;28;20186;-74
2022/01/31 01:52:03;;;;;;;15.07;4.70;;;6.30;99.90;;;;;;5054468;28;20688;-74
2022/01/31 01:54:29;;;;;;;17.07;4.50;;;6.30;99.90;;;;;;5054375;28;20197;-73
2022/01/31 01:56:56;;;;;;;15.63;5.17;;;6.30;99.90;;;;;;5054687;28;20204;-73
2022/01/31 01:59:22;;;;;;;15.30;5.00;;;6.30;99.90;;;;;;5054544;28;20256;-74
2022/01/31 02:01:48;;;;;;;9.17;3.70;;;6.30;99.90;;;;;;5054528;28;20170;-73
2022/01/31 02:04:13;;;;;;;14.30;5.13;;;6.30;99.90;;;;;;5054575;28;20172;-73
2022/01/31 02:06:40;;;;;;;19.40;5.20;;;6.30;99.90;;;;;;5054161;28;20173;-75
2022/01/31 02:09:06;;;;;;;20.23;5.57;;;6.20;99.90;;;;;;5054013;28;20576;-74
2022/01/31 02:11:31;;;;;;;14.00;5.40;;;6.10;99.90;;;;;;5054482;28;20261;-73
2022/01/31 02:13:57;;;;;;;18.97;5.47;;;6.10;99.90;;;;;;5054337;28;20174;-74
2022/01/31 02:16:23;;;;;;;15.40;4.87;;;6.10;99.90;;;;;;5054318;28;20177;-73
2022/01/31 02:18:50;;;;;;;13.70;5.40;;;6.20;99.90;;;;;;5054197;28;20173;-74
2022/01/31 02:21:17;;;;;;;18.80;5.37;;;6.20;99.90;;;;;;5053852;28;20280;-74
2022/01/31 02:23:43;;;;;;;13.53;5.50;;;6.20;99.90;;;;;;5053685;28;20636;-74
2022/01/31 02:26:09;;;;;;;16.93;5.70;;;6.20;99.90;;;;;;5053864;28;20217;-74
2022/01/31 02:28:36;;;;;;;17.30;5.20;;;6.20;99.90;;;;;;5053879;28;20170;-74
2022/01/31 02:31:03;;;;;;;13.17;5.60;;;6.30;99.90;;;;;;5053882;28;20204;-74
2022/01/31 02:33:29;;;;;;;12.07;4.93;;;6.20;99.90;;;;;;5053876;28;20180;-74
2022/01/31 02:35:59;;;;;;;14.73;5.60;;;6.30;99.90;;;;;;5053821;28;20200;-73
2022/01/31 02:38:26;;;;;;;9.57;4.20;;;6.40;99.90;;;;;;5053467;28;20177;-73
2022/01/31 02:40:52;;;;;;;9.57;4.93;;;6.40;99.90;;;;;;5053727;28;20280;-72
2022/01/31 02:43:26;;;;;;;11.50;4.47;;;6.40;99.90;;;;;;5053196;28;20173;-73
2022/01/31 02:45:51;;;;;;;11.03;4.63;;;6.40;99.90;;;;;;5053866;28;20535;-72
2022/01/31 02:48:21;;;;;;;8.23;4.50;;;6.40;99.90;;;;;;5053681;28;20218;-72
2022/01/31 02:50:46;;;;;;;9.80;4.53;;;6.40;99.90;;;;;;5053318;28;20197;-72
2022/01/31 02:53:23;;;;;;;10.03;4.63;;;6.40;99.90;;;;;;5053575;28;20165;-72
2022/01/31 02:55:50;;;;;;;6.83;3.40;;;6.50;99.90;;;;;;5053591;28;20267;-72
2022/01/31 02:58:17;;;;;;;5.07;3.50;;;6.50;99.90;;;;;;5053621;28;20180;-72
2022/01/31 03:00:44;;;;;;;5.47;3.27;;;6.60;99.90;;;;;;5053617;28;20274;-72
2022/01/31 03:03:10;;;;;;;4.47;3.23;;;6.60;99.90;;;;;;5053395;28;20169;-71
2022/01/31 03:05:36;;;;;;;4.77;2.87;;;6.60;99.90;;;;;;5035208;28;20531;-71
2022/01/31 03:08:03;;;;;;;3.90;2.90;;;6.60;99.90;;;;;;5053264;28;20215;-72
2022/01/31 03:10:28;;;;;;;4.60;2.80;;;6.60;99.90;;;;;;5053544;28;20286;-73
2022/01/31 03:12:54;;;;;;;3.43;3.00;;;6.70;99.90;;;;;;5053393;28;20252;-72
2022/01/31 03:15:20;;;;;;;8.13;3.30;;;6.80;99.90;;;;;;5053318;28;20215;-72
2022/01/31 03:17:48;;;;;;;8.10;3.40;;;6.80;99.90;;;;;;5052907;28;20226;-73
2022/01/31 03:20:16;;;;;;;10.87;3.73;;;6.90;99.90;;;;;;5052874;28;20272;-73
2022/01/31 03:22:42;;;;;;;8.33;3.57;;;6.90;99.90;;;;;;5053087;28;20702;-72
2022/01/31 03:25:08;;;;;;;7.13;3.33;;;7.00;99.90;;;;;;5052782;28;20199;-73
2022/01/31 03:27:34;;;;;;;8.27;3.57;;;7.00;99.90;;;;;;5053148;28;20235;-72
2022/01/31 03:30:00;;;;;;;8.03;3.70;;;7.10;99.90;;;;;;5053133;28;20169;-73
2022/01/31 03:32:25;;;;;;;7.93;3.33;;;7.20;99.90;;;;;;5052978;28;20165;-72
2022/01/31 03:34:51;;;;;;;14.03;4.47;;;7.20;99.90;;;;;;5052468;28;20177;-72
2022/01/31 03:37:17;;;;;;;13.60;3.97;;;7.30;99.90;;;;;;5052885;28;20166;-73
2022/01/31 03:39:42;;;;;;;12.00;3.87;;;7.30;99.90;;;;;;5052791;28;20247;-72
2022/01/31 03:42:08;;;;;;;13.27;3.70;;;7.40;99.90;;;;;;5052851;28;20283;-72
2022/01/31 03:44:34;;;;;;;9.77;3.57;;;7.40;99.90;;;;;;5035232;28;20161;-72
2022/01/31 03:47:00;;;;;;;7.93;2.93;;;7.40;99.90;;;;;;5052780;28;20181;-72
2022/01/31 03:49:25;;;;;;;8.70;3.33;;;7.40;99.90;;;;;;5052296;28;20172;-72
2022/01/31 03:51:51;;;;;;;12.00;3.43;;;7.50;99.90;;;;;;5052722;28;20208;-72
2022/01/31 03:54:17;;;;;;;13.97;3.00;;;7.50;99.90;;;;;;5055313;28;20525;-72
2022/01/31 03:56:42;;;;;;;11.07;3.13;;;7.50;99.90;;;;;;5057160;28;20654;-72
2022/01/31 03:59:08;;;;;;;10.20;2.77;;;7.50;99.90;;;;;;5056883;28;20187;-72
2022/01/31 04:01:34;;;;;;;11.67;2.87;;;7.50;99.90;;;;;;5056740;28;20184;-72
2022/01/31 04:04:00;;;;;;;7.70;2.50;;;7.40;99.90;;;;;;5056255;28;20184;-73
2022/01/31 04:06:26;;;;;;;10.03;2.60;;;7.40;99.90;;;;;;5056808;28;20177;-73
2022/01/31 04:08:51;;;;;;;12.00;2.50;;;7.30;99.90;;;;;;5056584;28;20671;-73
2022/01/31 04:11:18;;;;;;;11.20;2.83;;;7.30;99.90;;;;;;5056438;28;20209;-73
2022/01/31 04:13:43;;;;;;;9.37;2.60;;;7.30;99.90;;;;;;5056448;28;20169;-73
2022/01/31 04:16:09;;;;;;;6.40;2.43;;;7.20;99.90;;;;;;5056491;28;20191;-73
2022/01/31 04:18:35;;;;;;;13.00;2.60;;;7.10;99.90;;;;;;5055784;28;20643;-73
2022/01/31 04:21:00;;;;;;;10.90;2.53;;;7.10;99.90;;;;;;5056136;28;20590;-72
2022/01/31 04:23:28;;;;;;;9.27;2.40;;;7.00;99.90;;;;;;5056043;28;20173;-72
2022/01/31 04:26:02;;;;;;;12.33;2.80;;;7.00;99.90;;;;;;5056303;28;20209;-73
2022/01/31 04:28:39;;;;;;;11.37;2.50;;;7.00;99.90;;;;;;5056385;28;20204;-71
2022/01/31 04:31:26;;;;;;;11.17;2.37;;;6.90;99.90;;;;;;5056003;28;20298;-73
2022/01/31 04:33:51;;;;;;;8.53;2.40;;;6.90;99.90;;;;;;5055051;28;20200;-72
2022/01/31 04:36:17;;;;;;;12.33;2.37;;;6.80;99.90;;;;;;5056216;28;20200;-71
2022/01/31 04:38:44;;;;;;;8.40;2.10;;;6.90;99.90;;;;;;5056148;28;20555;-72
2022/01/31 04:41:10;;;;;;;7.30;2.40;;;6.90;99.90;;;;;;5055587;28;20189;-72
2022/01/31 04:43:36;;;;;;;10.73;2.33;;;7.00;99.90;;;;;;5055870;28;20177;-73
2022/01/31 04:46:05;;;;;;;15.37;2.63;;;7.10;99.90;;;;;;5055608;28;20183;-72
2022/01/31 04:48:31;;;;;;;9.83;2.47;;;7.10;99.90;;;;;;5055140;28;20197;-72
2022/01/31 04:50:56;;;;;;;6.37;2.37;;;7.10;99.90;;;;;;5055504;28;20298;-73
2022/01/31 04:53:22;;;;;;;9.70;2.40;;;7.10;99.90;;;;;;5055144;28;20180;-73
2022/01/31 04:55:48;;;;;;;9.60;1.90;;;7.10;99.90;;;;;;5037242;28;20185;-72
2022/01/31 04:58:14;;;;;;;11.60;2.57;;;7.10;99.90;;;;;;5055516;28;20593;-73
2022/01/31 05:00:40;;;;;;;5.43;1.90;;;7.20;99.90;;;;;;5055506;28;20179;-72
2022/01/31 05:03:12;;;;;;;9.40;2.50;;;7.20;99.90;;;;;;5054873;28;20559;-72
2022/01/31 05:05:38;;;;;;;7.43;1.80;;;7.30;99.90;;;;;;5054932;28;20183;-73
2022/01/31 05:08:04;;;;;;;13.13;2.30;;;7.30;99.90;;;;;;5055258;28;20184;-72
2022/01/31 05:10:32;;;;;;;13.03;2.60;;;7.40;99.90;;;;;;5054838;28;20209;-72
2022/01/31 05:12:58;;;;;;;13.30;2.57;;;7.40;99.90;;;;;;5054719;28;20174;-71
2022/01/31 05:15:23;;;;;;;9.80;2.97;;;7.40;99.90;;;;;;5055138;28;20185;-72
2022/01/31 05:17:49;;;;;;;10.47;2.63;;;7.30;99.90;;;;;;5054792;28;20200;-72
2022/01/31 05:20:15;;;;;;;7.93;2.20;;;7.40;99.90;;;;;;5055086;28;20172;-72
2022/01/31 05:22:40;;;;;;;8.67;2.17;;;7.40;99.90;;;;;;5054974;28;20209;-72
2022/01/31 05:25:06;;;;;;;7.20;2.20;;;7.50;99.90;;;;;;5054276;28;20173;-72
2022/01/31 05:27:32;;;;;;;7.43;2.07;;;7.50;99.90;;;;;;5036762;28;20196;-72
2022/01/31 05:29:57;;;;;;;7.37;2.40;;;7.40;99.90;;;;;;5054880;28;20176;-72
2022/01/31 05:32:23;;;;;;;13.33;2.57;;;7.40;99.90;;;;;;5036212;28;20215;-73
2022/01/31 05:34:48;;;;;;;7.67;2.47;;;7.50;99.90;;;;;;5036889;28;20169;-73
2022/01/31 05:37:14;;;;;;;7.40;2.10;;;7.60;99.90;;;;;;5036726;28;20177;-72
2022/01/31 05:39:40;;;;;;;9.47;2.37;;;7.60;99.90;;;;;;5054393;28;20264;-73
2022/01/31 05:42:06;;;;;;;9.93;2.57;;;7.60;99.90;;;;;;5054049;28;20571;-73
2022/01/31 05:44:31;;;;;;;10.57;2.40;;;7.60;99.90;;;;;;5054386;28;20173;-72
2022/01/31 05:46:57;;;;;;;8.53;2.40;;;7.60;99.90;;;;;;5054203;28;20629;-72
2022/01/31 05:49:23;;;;;;;12.60;2.70;;;7.60;99.90;;;;;;5054416;28;20191;-72
2022/01/31 05:52:01;;;;;;;14.57;2.60;;;7.60;99.90;;;;;;5054287;28;20212;-71
2022/01/31 05:54:28;;;;;;;10.33;2.60;;;7.60;99.90;;;;;;5053714;28;20161;-71
2022/01/31 05:56:55;;;;;;;8.83;2.70;;;7.60;99.90;;;;;;5054220;28;20267;-71
2022/01/31 05:59:21;;;;;;;7.40;2.37;;;7.70;99.90;;;;;;5053273;28;20177;-72
2022/01/31 06:01:47;;;;;;;9.87;2.83;;;7.60;99.90;;;;;;5053550;28;20183;-72
2022/01/31 06:04:12;;;;;;;12.57;2.80;;;7.70;99.90;;;;;;5036159;28;20177;-71
2022/01/31 06:06:38;;;;;;;12.40;2.57;;;7.60;99.90;;;;;;5053760;28;20526;-72
2022/01/31 06:09:05;;;;;;;13.60;2.40;;;7.70;99.90;;;;;;5053392;28;20189;-72
2022/01/31 06:11:33;;;;;;;8.17;2.80;;;7.60;99.90;;;;;;5053481;28;20219;-71
2022/01/31 06:14:00;;;;;;;13.43;2.60;;;7.60;99.90;;;;;;5052850;28;20165;-71
2022/01/31 06:16:27;;;;;;;8.27;2.30;;;7.70;99.90;;;;;;5052840;28;20182;-72
2022/01/31 06:18:52;;;;;;;12.03;2.70;;;7.60;99.90;;;;;;5052754;28;20632;-72
2022/01/31 06:21:18;;;;;;;12.27;2.53;;;7.60;99.90;;;;;;5053608;28;20226;-72
2022/01/31 06:23:43;;;;;;;10.43;2.90;;;7.60;99.90;;;;;;5053323;28;20169;-72
2022/01/31 06:26:09;;;;;;;10.67;2.70;;;7.60;99.90;;;;;;5052035;28;20315;-72
2022/01/31 06:28:35;;;;;;;13.23;2.47;;;7.60;99.90;;;;;;5052768;28;20235;-72
2022/01/31 06:31:01;;;;;;;9.90;2.20;;;7.60;99.90;;;;;;5052634;28;20208;-72
2022/01/31 06:33:27;;;;;;;11.33;2.50;;;7.60;99.90;;;;;;5053031;28;20260;-72
2022/01/31 06:35:52;;;;;;;9.60;2.63;;;7.60;99.90;;;;;;5051833;28;20196;-73
2022/01/31 06:38:18;;;;;;;11.03;3.00;;;7.70;99.90;;;;;;5053250;28;20169;-72
2022/01/31 06:40:44;;;;;;;12.47;2.70;;;7.70;99.90;;;;;;5034902;28;20292;-72
2022/01/31 06:43:10;;;;;;;19.00;3.57;;;7.70;99.90;;;;;;5052427;28;20264;-72
2022/01/31 06:45:35;;;;;;;11.40;2.77;;;7.70;99.90;;;;;;5052704;28;20552;-72
2022/01/31 06:48:01;;;;;;;9.23;2.43;;;7.80;99.90;;;;;;5052279;28;20181;-72
2022/01/31 06:50:27;;;;;;;12.23;2.73;;;7.70;99.90;;;;;;5052242;28;20311;-72
2022/01/31 06:52:55;;;;;;;12.87;3.10;;;7.70;99.90;;;;;;5052787;28;20560;-72
2022/01/31 06:55:22;;;;;;;13.97;3.17;;;7.70;99.90;;;;;;5052070;28;20173;-72
2022/01/31 06:57:49;;;;;;;9.73;2.70;;;7.80;99.90;;;;;;5051847;28;20212;-73
2022/01/31 07:00:17;;;;;;;11.67;2.57;;;7.80;99.90;;;;;;5051691;28;20179;-71
2022/01/31 07:02:43;;;;;;;11.07;2.20;;;7.80;99.90;;;;;;5052320;28;20181;-72
2022/01/31 07:05:09;;;;;;;22.20;4.27;;;7.70;99.90;;;;;;5052410;28;20235;-72
2022/01/31 07:07:35;;;;;;;9.50;2.47;;;7.70;99.90;;;;;;5051899;28;20173;-72
2022/01/31 07:10:02;;;;;;;15.90;2.67;;;7.70;99.90;;;;;;5052295;28;20269;-71
2022/01/31 07:12:33;;;;;;;14.47;2.93;;;7.60;99.90;;;;;;5051336;28;20216;-72
2022/01/31 07:15:00;;;;;;;9.50;2.50;;;7.70;99.90;;;;;;5052541;28;20606;-73
2022/01/31 07:17:25;;;;;;;10.03;2.57;;;7.70;99.90;;;;;;5051965;28;20173;-72
2022/01/31 07:19:52;;;;;;;13.37;2.70;;;7.70;99.90;;;;;;5052305;28;20548;-72
2022/01/31 07:22:19;;;;;;;13.30;3.30;;;7.70;99.90;;;;;;5051765;28;20192;-72
2022/01/31 07:24:49;;;;;;;12.00;2.67;;;7.70;99.90;;;;;;5051194;28;20211;-72
2022/01/31 07:27:14;;;;;;;16.40;3.20;;;7.80;99.90;;;;;;5033540;28;20355;-72
2022/01/31 07:29:40;;;;;;;13.60;2.43;;;7.80;99.90;;;;;;5033445;28;20264;-72
2022/01/31 07:32:12;;;;;;;12.67;3.03;;;7.70;99.90;;;;;;5051953;28;20681;-72
2022/01/31 07:34:40;;;;;;;7.57;1.93;;;7.70;99.90;;;;;;5052065;28;20172;-72
2022/01/31 07:37:06;;;;;;;7.73;2.40;;;7.80;99.90;;;;;;5051916;28;20173;-72
2022/01/31 07:39:32;;;;;;;10.47;3.07;;;7.80;99.90;;;;;;5051714;28;20700;-72
2022/01/31 07:41:58;;;;;;;10.47;2.50;;;7.80;99.90;;;;;;5051660;28;20166;-72
2022/01/31 07:44:24;;;;;;;12.10;2.83;;;7.80;99.90;;;;;;5051664;28;20524;-72
2022/01/31 07:46:49;;;;;;;12.83;3.13;;;7.80;99.90;;;;;;5051287;28;20166;-72
2022/01/31 07:49:15;;;;;;;9.67;2.47;;;7.80;99.90;;;;;;5051767;28;20686;-72
2022/01/31 07:51:41;;;;;;;13.53;2.93;;;7.80;99.90;;;;;;5051848;28;20213;-72
2022/01/31 07:54:08;;;;;;;14.13;2.70;;;7.80;99.90;;;;;;5051145;28;20177;-71
2022/01/31 07:56:34;;;;;;;9.60;3.10;;;7.80;99.90;;;;;;5030782;28;20268;-71
2022/01/31 07:59:00;;;;;;;14.30;3.10;;;7.80;99.90;;;;;;5041244;28;20169;-72
2022/01/31 08:01:28;;;;;;;10.77;2.97;;;7.90;99.90;;;;;;5043200;28;20264;-72
2022/01/31 08:03:54;;;;;;;11.47;2.70;;;7.90;99.90;;;;;;5046389;28;20265;-72
2022/01/31 08:06:19;;;;;;;13.73;2.67;;;7.90;99.90;;;;;;5034535;28;20213;-71
2022/01/31 08:08:45;;;;;;;12.07;2.57;;;7.90;99.90;;;;;;5039039;28;20169;-71
2022/01/31 08:11:10;;;;;;;11.30;3.30;;;7.80;99.90;;;;;;5036517;28;20217;-71
2022/01/31 08:13:38;;;;;;;11.90;2.57;;;7.80;99.90;;;;;;5046438;28;20219;-71
2022/01/31 08:18:33;;;;;;;12.30;2.67;;;7.80;99.90;;;;;;5034455;28;20170;-71
2022/01/31 08:21:00;;;;;;;18.00;3.33;;;7.80;99.90;;;;;;5046313;28;20177;-72
2022/01/31 08:23:25;;;;;;;11.90;2.53;;;7.70;99.90;;;;;;5033721;28;20224;-72
2022/01/31 08:25:52;;;;;;;12.73;2.70;;;7.60;99.90;;;;;;5037373;28;20221;-71
2022/01/31 08:28:22;;;;;;;12.90;2.60;;;7.70;99.90;;;;;;5051283;28;20252;-72
2022/01/31 08:30:59;;;;;;;9.67;3.23;;;7.80;99.90;;;;;;5034954;28;20244;-71
2022/01/31 08:33:42;;;;;;;15.23;2.93;;;7.70;99.90;;;;;;5042468;28;20170;-71
2022/01/31 08:36:09;;;;;;;12.47;3.40;;;7.70;99.90;;;;;;5043997;28;20196;-71
2022/01/31 08:38:38;;;;;;;11.53;2.80;;;7.70;99.90;;;;;;5034018;28;20178;-71
2022/01/31 08:41:04;;;;;;;10.83;3.13;;;7.70;99.90;;;;;;5048370;28;20541;-71
2022/01/31 08:43:30;;;;;;;12.63;2.53;;;7.70;99.90;;;;;;5043382;28;20173;-71
2022/01/31 08:45:56;;;;;;;9.63;2.43;;;7.70;99.90;;;;;;5054262;28;20184;-72
2022/01/31 08:48:27;;;;;;;14.33;3.10;;;7.70;99.90;;;;;;5038828;28;20170;-72
2022/01/31 08:50:54;;;;;;;14.10;3.03;;;7.70;99.90;;;;;;5052674;28;20286;-71
2022/01/31 08:53:20;;;;;;;7.47;2.27;;;7.70;99.90;;;;;;5051916;28;20189;-72
2022/01/31 08:55:55;;;;;;;12.30;3.13;;;7.70;99.90;;;;;;5043505;28;20567;-71
2022/01/31 08:58:22;;;;;;;15.10;3.50;;;7.70;99.90;;;;;;5034171;28;20185;-71
2022/01/31 09:00:51;;;;;;;10.17;2.87;;;7.70;99.90;;;;;;5036677;28;20519;-70
2022/01/31 09:03:35;;;;;;;14.93;3.20;;;7.70;99.90;;;;;;5048144;28;20190;-72
2022/01/31 09:06:02;;;;;;;12.93;2.60;;;7.80;99.90;;;;;;5034492;28;20301;-72
2022/01/31 09:08:28;;;;;;;19.20;3.80;;;7.80;99.90;;;;;;5049655;28;20223;-72
2022/01/31 09:10:53;;;;;;;16.07;3.63;;;7.80;99.90;;;;;;5037112;28;20243;-71
2022/01/31 09:13:19;;;;;;;13.63;3.20;;;7.80;99.90;;;;;;5049860;28;20181;-72
2022/01/31 09:15:45;;;;;;;13.00;3.27;;;7.80;99.90;;;;;;5040190;28;20212;-70
2022/01/31 09:18:10;;;;;;;17.40;3.47;;;7.80;99.90;;;;;;5040903;28;20173;-71
2022/01/31 09:20:36;;;;;;;13.43;3.20;;;7.80;99.90;;;;;;5050674;28;20180;-71
2022/01/31 09:23:04;;;;;;;18.67;3.83;;;7.80;99.90;;;;;;5038050;28;20177;-71
2022/01/31 09:25:31;;;;;;;12.20;3.13;;;7.70;99.90;;;;;;5045659;28;20267;-71
2022/01/31 09:27:58;;;;;;;14.97;3.37;;;7.80;99.90;;;;;;5045570;28;20248;-71
2022/01/31 09:30:26;;;;;;;19.57;2.97;;;7.80;99.90;;;;;;5031576;28;20169;-71
2022/01/31 09:32:53;;;;;;;12.40;3.60;;;7.80;99.90;;;;;;5037090;28;20215;-71
2022/01/31 09:35:19;;;;;;;12.23;3.50;;;7.80;99.90;;;;;;5045783;28;20170;-71
2022/01/31 09:37:45;;;;;;;10.80;3.07;;;7.80;99.90;;;;;;5043517;28;20184;-72
2022/01/31 09:40:16;;;;;;;15.47;3.70;;;7.70;99.90;;;;;;5046021;28;20228;-71
2022/01/31 09:46:20;;;;;;;17.20;3.17;;;7.80;99.90;;;;;;4972507;28;20254;-72
2022/01/31 09:48:41;;;;;;;13.63;3.50;;;7.80;99.90;;;;;;4989228;28;20278;-71
2022/01/31 09:51:17;;;;;;;10.10;2.43;;;7.90;99.90;;;;;;4985994;28;20216;-71
2022/01/31 09:54:00;;;;;;;15.03;3.20;;;7.90;99.90;;;;;;4972898;28;20283;-70
2022/01/31 09:56:29;;;;;;;10.10;2.60;;;7.90;99.90;;;;;;4977527;28;20283;-72
2022/01/31 09:58:56;;;;;;;14.20;3.47;;;7.90;99.90;;;;;;4986923;28;20197;-71
2022/01/31 10:01:33;;;;;;;11.07;3.27;;;7.80;99.90;;;;;;4991950;28;20658;-71
2022/01/31 10:04:10;;;;;;;11.43;2.70;;;7.80;99.90;;;;;;4980496;28;20191;-72
2022/01/31 10:06:38;;;;;;;12.27;3.40;;;7.80;99.90;;;;;;4974744;28;20187;-72
2022/01/31 10:09:17;;;;;;;15.47;3.07;;;7.80;99.90;;;;;;4989753;28;20266;-71
2022/01/31 10:11:53;;;;;;;9.47;2.90;;;7.50;99.90;;;;;;4975811;28;20215;-71
2022/01/31 10:17:24;;;;;;;9.37;2.73;;;7.00;99.90;;;;;;4977646;28;20594;-71
2022/01/31 10:19:51;;;;;;;12.33;3.40;;;7.00;99.90;;;;;;4991159;28;20722;-72
2022/01/31 10:22:19;;;;;;;14.33;3.43;;;7.00;99.90;;;;;;5007446;28;20182;-71
2022/01/31 10:24:48;;;;;;;15.53;3.43;;;7.20;99.90;;;;;;5035270;28;20174;-71
2022/01/31 10:27:20;;;;;;;16.20;4.13;;;7.30;99.90;;;;;;5038675;28;20232;-72
2022/01/31 10:29:48;;;;;;;15.53;3.57;;;7.40;99.90;;;;;;5041963;28;20652;-72
2022/01/31 10:32:18;;;;;;;11.70;2.77;;;7.60;99.90;;;;;;5046716;28;20232;-72
2022/01/31 10:35:02;;;;;;;14.30;3.30;;;7.60;99.90;;;;;;5044256;28;20172;-72
2022/01/31 10:37:30;;;;;;;14.73;3.13;;;7.70;99.90;;;;;;5040499;28;20169;-72
2022/01/31 10:51:52;;;;;;;8.00;2.63;;;7.90;99.90;;;;;;5031085;28;20228;-71
2022/01/31 10:53:57;;;;;;;9.97;3.00;;;7.90;99.90;;;;;;5038505;28;20173;-72
2022/01/31 10:56:24;;;;;;;18.17;3.00;;;7.80;99.90;;;;;;5044576;28;20181;-72
2022/01/31 10:59:04;;;;;;;14.07;3.03;;;7.80;99.90;;;;;;5037797;28;20189;-72
2022/01/31 11:01:30;;;;;;;17.13;3.57;;;7.80;99.90;;;;;;5030655;28;20225;-72
2022/01/31 11:04:00;;;;;;;13.13;3.10;;;7.70;99.90;;;;;;5035215;28;20284;-73
2022/01/31 11:06:26;;;;;;;16.73;3.43;;;7.70;99.90;;;;;;5042312;28;20181;-72
2022/01/31 11:08:59;;;;;;;13.80;3.60;;;7.70;99.90;;;;;;5051456;28;20185;-71
2022/01/31 11:11:25;;;;;;;13.60;3.53;;;7.60;99.90;;;;;;5035772;28;20738;-70
2022/01/31 11:13:54;;;;;;;16.60;3.03;;;7.60;99.90;;;;;;5033334;28;20245;-72
2022/01/31 11:16:20;;;;;;;16.80;3.67;;;7.70;99.90;;;;;;5041185;28;20180;-71
2022/01/31 11:18:47;;;;;;;19.57;4.23;;;7.80;99.90;;;;;;5037939;28;20203;-71
2022/01/31 11:21:14;;;;;;;12.80;3.37;;;7.80;99.90;;;;;;5048206;28;20310;-71
2022/01/31 11:23:43;;;;;;;12.77;3.27;;;7.90;99.90;;;;;;5036391;28;20161;-71
2022/01/31 11:26:12;;;;;;;16.13;3.30;;;8.10;99.90;;;;;;5043445;28;20230;-72
2022/01/31 11:28:43;;;;;;;10.17;3.27;;;8.20;99.90;;;;;;5044085;28;20252;-71
2022/01/31 11:31:10;;;;;;;16.10;3.30;;;8.20;99.90;;;;;;5034697;28;20209;-73
2022/01/31 11:33:35;;;;;;;20.00;3.53;;;8.10;99.90;;;;;;5047120;28;20162;-72
2022/01/31 11:36:05;;;;;;;15.63;3.73;;;8.00;99.90;;;;;;5039221;28;20543;-70
2022/01/31 11:38:32;;;;;;;14.43;3.47;;;7.90;99.90;;;;;;5039740;28;20612;-72
2022/01/31 11:41:03;;;;;;;14.33;3.33;;;7.90;99.90;;;;;;5046681;28;20613;-70
2022/01/31 11:43:31;;;;;;;20.30;3.60;;;7.80;99.90;;;;;;5033599;28;20195;-72
2022/01/31 11:45:59;;;;;;;20.20;4.43;;;7.70;99.90;;;;;;5037606;28;20199;-72
2022/01/31 11:48:29;;;;;;;19.87;3.73;;;7.60;99.90;;;;;;5042235;28;20693;-71
2022/01/31 11:50:57;;;;;;;13.57;3.37;;;7.50;99.90;;;;;;5036899;28;20237;-72
2022/01/31 11:53:35;;;;;;;20.50;4.53;;;7.30;99.90;;;;;;5047459;28;20223;-71
2022/01/31 11:56:17;;;;;;;12.87;4.00;;;7.10;99.90;;;;;;5034429;28;20174;-71
2022/01/31 11:58:48;;;;;;;15.57;3.57;;;6.70;99.90;;;;;;5037942;28;20178;-72
2022/01/31 12:01:14;;;;;;;15.50;3.73;;;6.60;99.90;;;;;;5047497;28;20267;-72
2022/01/31 12:04:13;;;;;;;19.67;4.20;;;6.50;99.90;;;;;;5033512;28;20265;-71
2022/01/31 12:06:38;;;;;;;16.97;4.00;;;6.50;99.90;;;;;;4979914;28;20198;-72
2022/01/31 12:09:10;;;;;;;11.50;3.60;;;6.60;99.90;;;;;;4989319;28;20554;-72
2022/01/31 12:12:01;;;;;;;15.43;4.03;;;6.80;99.90;;;;;;4974000;28;20219;-71
2022/01/31 12:14:41;;;;;;;13.20;3.40;;;6.90;99.90;;;;;;4988750;28;20180;-72
2022/01/31 12:23:37;;;;;;;16.50;3.67;;;7.00;99.90;;;;;;4980950;28;20190;-72
2022/01/31 12:26:31;;;;;;;12.13;3.50;;;7.00;99.90;;;;;;4989509;28;20219;-72
2022/01/31 12:28:59;;;;;;;17.67;3.87;;;7.10;99.90;;;;;;4955539;28;20240;-72
2022/01/31 12:31:36;;;;;;;21.27;4.37;;;7.10;99.90;;;;;;4991214;28;20707;-71
2022/01/31 12:34:08;;;;;;;15.83;3.70;;;7.20;99.90;;;;;;4985984;28;20224;-71
2022/01/31 12:36:36;;;;;;;19.50;3.90;;;7.20;99.90;;;;;;4985301;28;20259;-71
2022/01/31 12:39:31;;;;;;;17.90;3.73;;;7.20;99.90;;;;;;4984792;28;20204;-71
2022/01/31 12:42:14;;;;;;;13.63;3.23;;;7.30;99.90;;;;;;4980777;28;20192;-72
2022/01/31 12:44:41;;;;;;;19.57;6.20;;;7.20;99.90;;;;;;4981192;28;20171;-71
2022/01/31 12:47:16;;;;;;;19.17;4.47;;;7.30;99.90;;;;;;4976525;28;20203;-71
2022/01/31 12:49:42;;;;;;;17.47;3.87;;;7.20;99.90;;;;;;4973016;28;20183;-71
2022/01/31 12:52:10;;;;;;;18.20;5.10;;;7.30;99.90;;;;;;4983634;28;20211;-71
2022/01/31 12:54:37;;;;;;;16.00;3.80;;;7.30;99.90;;;;;;4995596;28;20278;-71
2022/01/31 12:57:11;;;;;;;19.00;4.03;;;7.30;99.90;;;;;;5050477;28;20184;-71
2022/01/31 12:59:39;;;;;;;19.33;3.67;;;7.30;99.90;;;;;;5037340;28;20177;-70
2022/01/31 13:02:10;;;;;;;22.20;4.57;;;7.40;99.90;;;;;;5048447;28;20182;-72
2022/01/31 13:04:37;;;;;;;18.23;5.23;;;7.40;99.90;;;;;;5049269;28;20235;-72
2022/01/31 13:07:05;;;;;;;21.87;4.03;;;7.60;99.90;;;;;;5050466;28;20173;-72
2022/01/31 13:09:38;;;;;;;24.47;8.30;;;7.50;99.90;;;;;;5037400;28;20162;-71
2022/01/31 13:12:10;;;;;;;17.97;4.10;;;7.30;99.90;;;;;;5045320;28;20202;-71
2022/01/31 13:14:37;;;;;;;23.47;4.60;;;7.20;99.90;;;;;;5045351;28;20284;-72
2022/01/31 13:19:34;;;;;;;22.57;4.90;;;7.10;99.90;;;;;;5034335;28;20174;-70
2022/01/31 13:22:03;;;;;;;21.87;4.73;;;7.00;99.90;;;;;;5034382;28;20275;-71